Time;durP1;ratioP1;P1;durP2;ratioP2;P2;SDS_P1;SDS_P2;PMS_P1;PMS_P2;Temp;Humidity;BMP_temperature;BMP_pressure;BME280_temperature;BME280_humidity;BME280_pressure;Samples;Min_cycle;Max_cycle;Signal;HPM_P1;HPM_P2
2022/12/23 00:00:39;;;;;;;;;;;;;;;9.25;100.00;100312.06;4996085;28;20360;-66
2022/12/23 00:03:04;;;;;;;;;;;;;;;9.24;100.00;100323.28;4994627;28;20300;-67
2022/12/23 00:05:29;;;;;;;;;;;;;;;9.24;100.00;100323.28;4995009;28;19914;-67
2022/12/23 00:07:54;;;;;;;;;;;;;;;9.24;100.00;100326.72;4977625;28;19913;-67
2022/12/23 00:10:20;;;;;;;;;;;;;;;9.25;100.00;100319.81;4995608;28;19910;-67
2022/12/23 00:15:29;;;;;;;;;;;;;;;9.27;100.00;100328.38;4993824;28;19924;-67
2022/12/23 00:17:54;;;;;;;;;;;;;;;9.26;100.00;100335.28;4995882;28;19910;-67
2022/12/23 00:20:19;;;;;;;;;;;;;;;9.27;100.00;100337.00;4982753;28;19914;-67
2022/12/23 00:25:40;;;;;;;;;;;;;;;9.24;100.00;100333.63;4995394;28;19924;-67
2022/12/23 00:28:06;;;;;;;;;;;;;;;9.28;100.00;100330.91;4994894;28;19971;-67
2022/12/23 00:30:31;;;;;;;;;;;;;;;9.28;100.00;100338.66;4994663;28;19913;-67
2022/12/23 00:32:56;;;;;;;;;;;;;;;9.29;100.00;100336.94;4994939;28;19920;-67
2022/12/23 00:35:21;;;;;;;;;;;;;;;9.28;100.00;100343.84;4995603;28;19924;-67
2022/12/23 00:37:46;;;;;;;;;;;;;;;9.28;100.00;100343.84;4994112;28;20291;-67
2022/12/23 00:42:56;;;;;;;;;;;;;;;9.28;100.00;100355.94;4995606;28;20462;-67
2022/12/23 00:45:22;;;;;;;;;;;;;;;9.27;100.00;100357.69;4995144;28;20368;-66
2022/12/23 00:50:31;;;;;;;;;;;;;;;9.28;100.00;100359.34;4994634;28;19921;-66
2022/12/23 00:52:56;;;;;;;;;;;;;;;9.28;100.00;100356.78;4994900;28;19909;-67
2022/12/23 00:55:22;;;;;;;;;;;;;;;9.29;100.00;100365.38;4993751;28;20380;-67
2022/12/23 00:57:47;;;;;;;;;;;;;;;9.28;100.00;100376.66;4994193;28;19961;-67
2022/12/23 01:00:13;;;;;;;;;;;;;;;9.28;100.00;100374.88;4994221;28;19924;-67
2022/12/23 01:05:38;;;;;;;;;;;;;;;9.28;100.00;100384.41;4994168;28;20402;-67
2022/12/23 01:08:07;;;;;;;;;;;;;;;9.27;100.00;100375.78;4983808;28;19918;-67
2022/12/23 01:10:39;;;;;;;;;;;;;;;9.27;100.00;100383.53;4993459;28;19914;-67
2022/12/23 01:13:05;;;;;;;;;;;;;;;9.27;100.00;100380.13;4988765;28;19921;-66
2022/12/23 01:15:30;;;;;;;;;;;;;;;9.29;100.00;100383.47;4987047;28;20288;-67
2022/12/23 01:17:56;;;;;;;;;;;;;;;9.29;100.00;100388.66;4989060;28;19913;-67
2022/12/23 01:20:21;;;;;;;;;;;;;;;9.28;100.00;100382.63;4994968;28;19913;-67
2022/12/23 01:22:47;;;;;;;;;;;;;;;9.27;100.00;100386.13;4993206;28;20273;-67
2022/12/23 01:25:12;;;;;;;;;;;;;;;9.28;100.00;100387.81;4994298;28;19918;-67
2022/12/23 01:27:38;;;;;;;;;;;;;;;9.29;100.00;100393.81;4993041;28;19914;-67
2022/12/23 01:30:03;;;;;;;;;;;;;;;9.28;100.00;100381.81;4993457;28;19921;-67
2022/12/23 01:32:28;;;;;;;;;;;;;;;9.27;100.00;100386.13;4992003;28;19953;-67
2022/12/23 01:34:53;;;;;;;;;;;;;;;9.28;100.00;100381.81;4994095;28;19929;-67
2022/12/23 01:37:19;;;;;;;;;;;;;;;9.27;100.00;100393.91;4976901;28;19935;-67
2022/12/23 01:39:44;;;;;;;;;;;;;;;9.28;100.00;100387.00;4993105;28;19925;-67
2022/12/23 01:45:03;;;;;;;;;;;;;;;9.25;100.00;100390.50;4994227;28;19921;-67
2022/12/23 01:47:38;;;;;;;;;;;;;;;9.26;100.00;100394.78;4993202;28;19913;-67
2022/12/23 01:50:12;;;;;;;;;;;;;;;9.25;100.00;100400.84;4993376;28;19996;-70
2022/12/23 01:52:59;;;;;;;;;;;;;;;9.26;100.00;100405.13;4993487;28;19910;-70
2022/12/23 01:55:27;;;;;;;;;;;;;;;9.26;100.00;100409.44;4992337;28;20159;-71
2022/12/23 01:57:54;;;;;;;;;;;;;;;9.27;100.00;100418.91;4991398;28;20377;-71
2022/12/23 02:05:48;;;;;;;;;;;;;;;9.25;100.00;100426.69;4991682;28;19925;-71
2022/12/23 02:10:58;;;;;;;;;;;;;;;9.25;100.00;100433.59;4991659;28;19936;-71
2022/12/23 02:13:26;;;;;;;;;;;;;;;9.26;100.00;100424.97;4991955;28;20335;-70
2022/12/23 02:18:46;;;;;;;;;;;;;;;9.24;100.00;100443.09;4995920;28;19920;-67
2022/12/23 02:21:18;;;;;;;;;;;;;;;9.26;100.00;100440.47;4978895;28;19916;-67
2022/12/23 02:24:01;;;;;;;;;;;;;;;9.25;100.00;100444.78;4994650;28;19913;-67
2022/12/23 02:26:45;;;;;;;;;;;;;;;9.25;100.00;100436.19;4986390;28;20467;-67
2022/12/23 02:29:10;;;;;;;;;;;;;;;9.25;100.00;100439.63;4977301;28;19937;-67
2022/12/23 02:31:38;;;;;;;;;;;;;;;9.25;100.00;100446.53;4995196;28;20315;-67
2022/12/23 02:34:27;;;;;;;;;;;;;;;9.24;100.00;100445.69;4996624;28;19956;-67
2022/12/23 02:37:04;;;;;;;;;;;;;;;9.24;100.00;100453.44;4945910;28;19914;-67
2022/12/23 02:39:37;;;;;;;;;;;;;;;9.25;100.00;100456.88;4996147;28;19917;-67
2022/12/23 02:42:02;;;;;;;;;;;;;;;9.24;100.00;100458.59;4996047;28;19910;-67
2022/12/23 02:44:46;;;;;;;;;;;;;;;9.24;100.00;100463.78;4995666;28;19914;-67
2022/12/23 02:47:15;;;;;;;;;;;;;;;9.24;100.00;100474.13;4994591;28;20895;-67
2022/12/23 02:49:42;;;;;;;;;;;;;;;9.24;100.00;100479.28;4996296;28;19936;-67
2022/12/23 02:52:12;;;;;;;;;;;;;;;9.25;100.00;100486.19;4995039;28;19917;-67
2022/12/23 02:54:43;;;;;;;;;;;;;;;9.25;100.00;100499.09;4995717;28;19960;-67
2022/12/23 02:57:11;;;;;;;;;;;;;;;9.25;100.00;100501.69;4995440;28;20296;-67
2022/12/23 02:59:39;;;;;;;;;;;;;;;9.24;100.00;100504.31;4985077;28;20064;-67
2022/12/23 03:02:04;;;;;;;;;;;;;;;9.24;100.00;100510.34;4978534;28;19932;-67
2022/12/23 03:04:29;;;;;;;;;;;;;;;9.23;100.00;100500.88;4996306;28;20185;-68
2022/12/23 03:06:56;;;;;;;;;;;;;;;9.23;100.00;100498.28;4936837;28;1638979;-67
2022/12/23 03:09:44;;;;;;;;;;;;;;;9.23;100.00;100500.00;4995648;28;19920;-67
2022/12/23 03:12:21;;;;;;;;;;;;;;;9.22;100.00;100499.16;4969908;28;19950;-67
2022/12/23 03:14:46;;;;;;;;;;;;;;;9.23;100.00;100506.03;4977846;28;19917;-68
2022/12/23 03:17:21;;;;;;;;;;;;;;;9.23;100.00;100503.44;4977356;28;20013;-67
2022/12/23 03:19:51;;;;;;;;;;;;;;;9.23;100.00;100508.63;4977162;28;20331;-67
2022/12/23 03:22:25;;;;;;;;;;;;;;;9.24;100.00;100501.72;4995996;28;19914;-67
2022/12/23 03:24:59;;;;;;;;;;;;;;;9.24;100.00;100488.78;4995121;28;19913;-67
2022/12/23 03:27:24;;;;;;;;;;;;;;;9.21;100.00;100492.28;4996016;28;19909;-68
2022/12/23 03:29:49;;;;;;;;;;;;;;;9.21;100.00;100494.06;4995885;28;19917;-71
2022/12/23 03:32:15;;;;;;;;;;;;;;;9.21;100.00;100491.47;4994950;28;19913;-71
2022/12/23 03:34:43;;;;;;;;;;;;;;;9.21;100.00;100494.06;4993317;28;19917;-71
2022/12/23 03:37:10;;;;;;;;;;;;;;;9.22;100.00;100496.56;4994808;28;20096;-70
2022/12/23 03:39:39;;;;;;;;;;;;;;;9.21;100.00;100496.63;4994101;28;19918;-71
2022/12/23 03:42:10;;;;;;;;;;;;;;;9.20;100.00;100493.19;4995028;28;19909;-71
2022/12/23 03:44:37;;;;;;;;;;;;;;;9.20;100.00;100497.53;4995203;28;20344;-70
2022/12/23 03:47:05;;;;;;;;;;;;;;;9.20;100.00;100498.38;4995381;28;19916;-71
2022/12/23 03:49:34;;;;;;;;;;;;;;;9.21;100.00;100500.03;4992316;28;20347;-71
2022/12/23 03:52:01;;;;;;;;;;;;;;;9.21;100.00;100499.22;4994917;28;19914;-71
2022/12/23 03:54:30;;;;;;;;;;;;;;;9.20;100.00;100495.78;4994443;28;20096;-71
2022/12/23 03:57:00;;;;;;;;;;;;;;;9.20;100.00;100497.53;4993838;28;19914;-71
2022/12/23 03:59:27;;;;;;;;;;;;;;;9.19;100.00;100501.84;4993779;28;20442;-71
2022/12/23 04:02:11;;;;;;;;;;;;;;;9.20;100.00;100492.34;4994514;28;19924;-70
2022/12/23 04:04:47;;;;;;;;;;;;;;;9.20;100.00;100508.72;4993118;28;20404;-71
2022/12/23 04:07:31;;;;;;;;;;;;;;;9.20;100.00;100511.31;4994335;28;19917;-71
2022/12/23 04:09:57;;;;;;;;;;;;;;;9.19;100.00;100509.59;4995358;28;20084;-70
2022/12/23 04:12:23;;;;;;;;;;;;;;;9.22;100.00;100522.44;4994579;28;20284;-71
2022/12/23 04:14:48;;;;;;;;;;;;;;;9.21;100.00;100523.31;4993951;28;20467;-71
2022/12/23 04:17:14;;;;;;;;;;;;;;;9.21;100.00;100520.72;4994554;28;19909;-70
2022/12/23 04:19:40;;;;;;;;;;;;;;;9.21;100.00;100522.50;4992283;28;19921;-70
2022/12/23 04:22:05;;;;;;;;;;;;;;;9.20;100.00;100524.22;4994792;28;19910;-71
2022/12/23 04:24:30;;;;;;;;;;;;;;;9.21;100.00;100519.91;4990117;28;20431;-71
2022/12/23 04:26:56;;;;;;;;;;;;;;;9.20;100.00;100526.81;4975165;28;19910;-70
2022/12/23 04:29:21;;;;;;;;;;;;;;;9.20;100.00;100531.13;4991849;28;20331;-71
2022/12/23 04:31:46;;;;;;;;;;;;;;;9.19;100.00;100535.47;4993857;28;19921;-71
2022/12/23 04:34:11;;;;;;;;;;;;;;;9.18;100.00;100543.25;4991778;28;19925;-71
2022/12/23 04:36:37;;;;;;;;;;;;;;;9.17;100.00;100544.97;4994062;28;19910;-71
2022/12/23 04:39:02;;;;;;;;;;;;;;;9.18;100.00;100551.00;4993435;28;19918;-70
2022/12/23 04:41:27;;;;;;;;;;;;;;;9.17;100.00;100544.13;4994153;28;20189;-70
2022/12/23 04:43:52;;;;;;;;;;;;;;;9.17;100.00;100552.72;4993366;28;19997;-71
2022/12/23 04:46:17;;;;;;;;;;;;;;;9.17;100.00;100544.13;4992609;28;20304;-70
2022/12/23 04:48:43;;;;;;;;;;;;;;;9.17;100.00;100550.16;4993449;28;20273;-70
2022/12/23 04:51:08;;;;;;;;;;;;;;;9.17;100.00;100551.88;4993972;28;19940;-71
2022/12/23 04:53:35;;;;;;;;;;;;;;;9.18;100.00;100544.09;4994253;28;19914;-70
2022/12/23 04:56:00;;;;;;;;;;;;;;;9.19;100.00;100542.38;4994000;28;19914;-70
2022/12/23 04:58:25;;;;;;;;;;;;;;;9.18;100.00;100531.16;4992646;28;19963;-67
2022/12/23 05:01:00;;;;;;;;;;;;;;;9.18;100.00;100527.72;4994849;28;19913;-69
2022/12/23 05:03:25;;;;;;;;;;;;;;;9.17;100.00;100523.44;4993239;28;19916;-68
2022/12/23 05:05:50;;;;;;;;;;;;;;;9.17;100.00;100526.03;4976933;28;19918;-68
2022/12/23 05:08:16;;;;;;;;;;;;;;;9.16;100.00;100520.00;4995198;28;20387;-68
2022/12/23 05:10:41;;;;;;;;;;;;;;;9.18;100.00;100510.47;4990987;28;20365;-68
2022/12/23 05:13:06;;;;;;;;;;;;;;;9.19;100.00;100519.94;4985320;28;19913;-68
2022/12/23 05:15:31;;;;;;;;;;;;;;;9.19;100.00;100519.94;4994370;28;20295;-68
2022/12/23 05:17:57;;;;;;;;;;;;;;;9.19;100.00;100521.66;4994563;28;19920;-68
2022/12/23 05:20:22;;;;;;;;;;;;;;;9.20;100.00;100529.41;4983813;28;20413;-68
2022/12/23 05:22:47;;;;;;;;;;;;;;;9.21;100.00;100540.59;4994546;28;20160;-67
2022/12/23 05:25:12;;;;;;;;;;;;;;;9.21;100.00;100541.41;4994521;28;19961;-68
2022/12/23 05:27:37;;;;;;;;;;;;;;;9.20;100.00;100547.50;4993996;28;20349;-68
2022/12/23 05:30:03;;;;;;;;;;;;;;;9.19;100.00;100548.38;4992089;28;19964;-68
2022/12/23 05:32:28;;;;;;;;;;;;;;;9.18;100.00;100558.75;4994670;28;19968;-68
2022/12/23 05:34:53;;;;;;;;;;;;;;;9.16;100.00;100568.28;4975971;28;20077;-68
2022/12/23 05:37:19;;;;;;;;;;;;;;;9.16;100.00;100573.44;4994073;28;19964;-68
2022/12/23 05:39:44;;;;;;;;;;;;;;;9.13;100.00;100569.22;4975791;28;20373;-68
2022/12/23 05:42:09;;;;;;;;;;;;;;;9.13;100.00;100571.81;4994353;28;19914;-68
2022/12/23 05:44:34;;;;;;;;;;;;;;;9.11;100.00;100566.66;4975728;28;20383;-68
2022/12/23 05:46:59;;;;;;;;;;;;;;;9.10;100.00;100575.28;4993090;28;19917;-67
2022/12/23 05:49:25;;;;;;;;;;;;;;;9.08;100.00;100574.47;4990242;28;19920;-68
2022/12/23 05:51:50;;;;;;;;;;;;;;;9.07;100.00;100585.72;4994149;28;19916;-68
2022/12/23 05:54:16;;;;;;;;;;;;;;;9.06;100.00;100585.75;4993463;28;20415;-68
2022/12/23 05:56:41;;;;;;;;;;;;;;;9.05;100.00;100576.28;4993041;28;19960;-68
2022/12/23 05:59:06;;;;;;;;;;;;;;;9.04;100.00;100566.81;4994314;28;20431;-68
2022/12/23 06:01:31;;;;;;;;;;;;;;;9.03;100.00;100562.53;4993064;28;19918;-68
2022/12/23 06:03:57;;;;;;;;;;;;;;;9.01;100.00;100565.13;4992934;28;19997;-68
2022/12/23 06:06:22;;;;;;;;;;;;;;;9.02;100.00;100553.06;4992395;28;19918;-68
2022/12/23 06:08:47;;;;;;;;;;;;;;;9.01;100.00;100553.94;4993848;28;20005;-68
2022/12/23 06:11:12;;;;;;;;;;;;;;;9.00;100.00;100552.28;4993853;28;19902;-67
2022/12/23 06:13:37;;;;;;;;;;;;;;;8.98;100.00;100541.97;4988182;28;19910;-68
2022/12/23 06:16:03;;;;;;;;;;;;;;;8.98;100.00;100547.13;4988601;28;20430;-67
2022/12/23 06:18:28;;;;;;;;;;;;;;;8.97;100.00;100537.66;4989102;28;19914;-67
2022/12/23 06:20:53;;;;;;;;;;;;;;;8.96;100.00;100540.28;4973695;28;20347;-68
2022/12/23 06:23:18;;;;;;;;;;;;;;;8.96;100.00;100540.28;4992634;28;20434;-68
2022/12/23 06:25:44;;;;;;;;;;;;;;;8.95;100.00;100536.00;4993292;28;19949;-68
2022/12/23 06:28:09;;;;;;;;;;;;;;;8.95;100.00;100533.41;4993987;28;19920;-68
2022/12/23 06:30:34;;;;;;;;;;;;;;;8.93;100.00;100538.63;4993103;28;19996;-67
2022/12/23 06:32:59;;;;;;;;;;;;;;;8.93;100.00;100537.78;4992252;28;20387;-68
2022/12/23 06:35:24;;;;;;;;;;;;;;;8.91;100.00;100540.38;4993277;28;19909;-68
2022/12/23 06:37:51;;;;;;;;;;;;;;;8.92;100.00;100543.81;4991173;28;19914;-68
2022/12/23 06:40:16;;;;;;;;;;;;;;;8.91;100.00;100548.16;4992690;28;19940;-68
2022/12/23 06:42:41;;;;;;;;;;;;;;;8.91;100.00;100547.28;4993057;28;20300;-67
2022/12/23 06:45:07;;;;;;;;;;;;;;;8.91;100.00;100549.88;4993536;28;19961;-68
2022/12/23 06:47:32;;;;;;;;;;;;;;;8.91;100.00;100549.88;4993446;28;19910;-68
2022/12/23 06:49:57;;;;;;;;;;;;;;;8.90;100.00;100561.94;4992682;28;20383;-68
2022/12/23 06:52:23;;;;;;;;;;;;;;;8.91;100.00;100566.25;4992225;28;20292;-68
2022/12/23 06:54:48;;;;;;;;;;;;;;;8.92;100.00;100567.94;4981245;28;20388;-68
2022/12/23 06:57:13;;;;;;;;;;;;;;;8.93;100.00;100566.22;4985437;28;19910;-68
2022/12/23 06:59:38;;;;;;;;;;;;;;;8.93;100.00;100581.72;4992772;28;19953;-68
2022/12/23 07:02:04;;;;;;;;;;;;;;;8.93;100.00;100584.31;4992888;28;19916;-68
2022/12/23 07:04:29;;;;;;;;;;;;;;;8.93;100.00;100592.06;4997462;28;19914;-68
2022/12/23 07:06:54;;;;;;;;;;;;;;;8.93;100.00;100605.84;4987641;28;19961;-68
2022/12/23 07:09:20;;;;;;;;;;;;;;;8.93;100.00;100616.19;4992600;28;19979;-68
2022/12/23 07:11:45;;;;;;;;;;;;;;;8.95;100.00;100631.63;4996845;28;20276;-68
2022/12/23 07:14:10;;;;;;;;;;;;;;;8.93;100.00;100630.84;4996060;28;19920;-68
2022/12/23 07:16:35;;;;;;;;;;;;;;;8.93;100.00;100629.09;4994402;28;20004;-68
2022/12/23 07:19:01;;;;;;;;;;;;;;;8.93;100.00;100623.94;4978468;28;19926;-68
2022/12/23 07:21:26;;;;;;;;;;;;;;;8.94;100.00;100624.78;4995790;28;20435;-67
2022/12/23 07:23:51;;;;;;;;;;;;;;;8.93;100.00;100610.16;4996886;28;19906;-67
2022/12/23 07:26:16;;;;;;;;;;;;;;;8.93;100.00;100599.81;4996356;28;19921;-67
2022/12/23 07:28:42;;;;;;;;;;;;;;;8.94;100.00;100606.69;5002624;28;19924;-68
2022/12/23 07:31:07;;;;;;;;;;;;;;;8.94;100.00;100609.28;4995034;28;20056;-67
2022/12/23 07:33:32;;;;;;;;;;;;;;;8.96;100.00;100603.16;4993672;28;19917;-67
2022/12/23 07:35:58;;;;;;;;;;;;;;;8.96;100.00;100603.16;4993465;28;19996;-67
2022/12/23 07:38:23;;;;;;;;;;;;;;;8.96;100.00;100591.97;4999312;28;19975;-67
2022/12/23 07:40:48;;;;;;;;;;;;;;;8.97;100.00;100602.28;4999451;28;20013;-68
2022/12/23 07:43:14;;;;;;;;;;;;;;;8.99;100.00;100591.94;4994527;28;19913;-68
2022/12/23 07:45:39;;;;;;;;;;;;;;;8.98;100.00;100604.00;4994000;28;19933;-67
2022/12/23 07:48:04;;;;;;;;;;;;;;;8.98;100.00;100597.97;4996219;28;19913;-68
2022/12/23 07:50:30;;;;;;;;;;;;;;;8.96;100.00;100595.41;4993619;28;19921;-68
2022/12/23 07:52:55;;;;;;;;;;;;;;;8.97;100.00;100588.50;4992311;28;19921;-67
2022/12/23 07:55:21;;;;;;;;;;;;;;;8.98;100.00;100592.81;4995737;28;19918;-68
2022/12/23 07:57:50;;;;;;;;;;;;;;;8.99;100.00;100592.78;4996243;28;20165;-68
2022/12/23 08:00:15;;;;;;;;;;;;;;;9.00;100.00;100594.50;4993811;28;19921;-68
2022/12/23 08:02:40;;;;;;;;;;;;;;;9.01;100.00;100590.13;4995797;28;19914;-67
2022/12/23 08:05:06;;;;;;;;;;;;;;;9.02;100.00;100597.00;4995348;28;19921;-67
2022/12/23 08:07:31;;;;;;;;;;;;;;;9.04;100.00;100596.13;4992793;28;19922;-68
2022/12/23 08:09:56;;;;;;;;;;;;;;;9.04;100.00;100585.78;4979823;28;19913;-68
2022/12/23 08:12:21;;;;;;;;;;;;;;;9.05;100.00;100596.97;4988738;28;19913;-68
2022/12/23 08:14:47;;;;;;;;;;;;;;;9.06;100.00;100598.66;4989913;28;19914;-68
2022/12/23 08:17:13;;;;;;;;;;;;;;;9.07;100.00;100600.38;4998446;28;19913;-68
2022/12/23 08:19:38;;;;;;;;;;;;;;;9.07;100.00;100590.03;4995632;28;20364;-68
2022/12/23 08:22:03;;;;;;;;;;;;;;;9.07;100.00;100574.53;4995959;28;19917;-67
2022/12/23 08:24:28;;;;;;;;;;;;;;;9.04;100.00;100577.16;4995538;28;19920;-68
2022/12/23 08:26:53;;;;;;;;;;;;;;;9.04;100.00;100569.41;4994408;28;19910;-67
2022/12/23 08:29:19;;;;;;;;;;;;;;;9.02;100.00;100573.75;4996039;28;20607;-68
2022/12/23 08:31:44;;;;;;;;;;;;;;;9.04;100.00;100577.16;4993111;28;19913;-68
2022/12/23 08:34:09;;;;;;;;;;;;;;;9.04;100.00;100564.22;4992767;28;19914;-68
2022/12/23 08:36:35;;;;;;;;;;;;;;;9.04;100.00;100559.91;4994703;28;19909;-68
2022/12/23 08:39:02;;;;;;;;;;;;;;;9.06;100.00;100558.16;4995431;28;20143;-68
2022/12/23 08:41:29;;;;;;;;;;;;;;;9.08;100.00;100568.44;4995387;28;19956;-68
2022/12/23 08:43:55;;;;;;;;;;;;;;;9.09;100.00;100572.72;4991214;28;19914;-67
2022/12/23 08:46:20;;;;;;;;;;;;;;;9.10;100.00;100577.03;4994253;28;20288;-67
2022/12/23 08:48:46;;;;;;;;;;;;;;;9.10;100.00;100577.03;4993622;28;19995;-67
2022/12/23 08:51:13;;;;;;;;;;;;;;;9.10;100.00;100569.25;4994498;28;19925;-68
2022/12/23 08:53:38;;;;;;;;;;;;;;;9.12;100.00;100572.69;4994424;28;19925;-67
2022/12/23 08:56:05;;;;;;;;;;;;;;;9.13;100.00;100560.59;4995158;28;19921;-68
2022/12/23 08:58:34;;;;;;;;;;;;;;;9.13;100.00;100553.69;4995399;28;20387;-67
2022/12/23 09:01:02;;;;;;;;;;;;;;;9.14;100.00;100544.22;4994768;28;19914;-68
2022/12/23 09:03:27;;;;;;;;;;;;;;;9.14;100.00;100534.72;4995224;28;19909;-68
2022/12/23 09:05:52;;;;;;;;;;;;;;;9.16;100.00;100532.94;4994005;28;19967;-67
2022/12/23 09:08:17;;;;;;;;;;;;;;;9.17;100.00;100538.94;4992463;28;19913;-67
2022/12/23 09:10:43;;;;;;;;;;;;;;;9.16;100.00;100540.69;4995485;28;19919;-67
2022/12/23 09:13:11;;;;;;;;;;;;;;;9.15;100.00;100536.38;4976744;28;19958;-67
2022/12/23 09:15:41;;;;;;;;;;;;;;;9.17;100.00;100536.38;4986387;28;19910;-67
2022/12/23 09:18:06;;;;;;;;;;;;;;;9.17;100.00;100534.63;4994107;28;19920;-68
2022/12/23 09:20:31;;;;;;;;;;;;;;;9.19;100.00;100526.84;4994046;28;19996;-67
2022/12/23 09:22:58;;;;;;;;;;;;;;;9.19;100.00;100529.44;4990134;28;20336;-68
2022/12/23 09:25:23;;;;;;;;;;;;;;;9.19;100.00;100525.13;4994337;28;20009;-67
2022/12/23 09:27:48;;;;;;;;;;;;;;;9.20;100.00;100513.88;4994487;28;19945;-68
2022/12/23 09:30:13;;;;;;;;;;;;;;;9.22;100.00;100514.69;4994425;28;19913;-67
2022/12/23 09:32:39;;;;;;;;;;;;;;;9.23;100.00;100507.78;4995021;28;19924;-67
2022/12/23 09:35:04;;;;;;;;;;;;;;;9.21;100.00;100510.38;4991980;28;20029;-67
2022/12/23 09:37:29;;;;;;;;;;;;;;;9.20;100.00;100503.53;4991608;28;19952;-67
2022/12/23 09:39:54;;;;;;;;;;;;;;;9.19;100.00;100496.66;4991485;28;19925;-68
2022/12/23 09:42:26;;;;;;;;;;;;;;;9.16;100.00;100488.97;4982332;28;19910;-67
2022/12/23 09:45:02;;;;;;;;;;;;;;;9.14;100.00;100482.16;4990013;28;19928;-67
2022/12/23 09:47:28;;;;;;;;;;;;;;;9.11;100.00;100491.66;4996000;28;19996;-67
2022/12/23 09:49:57;;;;;;;;;;;;;;;9.11;100.00;100478.75;4994880;28;20296;-67
2022/12/23 09:52:26;;;;;;;;;;;;;;;9.14;100.00;100480.41;4980817;28;21328;-67
2022/12/23 09:54:52;;;;;;;;;;;;;;;9.17;100.00;100469.13;4993856;28;20344;-67
2022/12/23 09:57:36;;;;;;;;;;;;;;;9.17;100.00;100457.06;4994441;28;20343;-68
2022/12/23 10:00:05;;;;;;;;;;;;;;;9.18;100.00;100463.94;4995752;28;19963;-67
2022/12/23 10:02:50;;;;;;;;;;;;;;;9.21;100.00;100460.44;4995983;28;19967;-67
2022/12/23 10:05:23;;;;;;;;;;;;;;;9.22;100.00;100470.72;4977967;28;19964;-68
2022/12/23 10:07:51;;;;;;;;;;;;;;;9.24;100.00;100476.72;4993550;28;20005;-67
2022/12/23 10:10:30;;;;;;;;;;;;;;;9.24;100.00;100456.03;4992805;28;19974;-67
2022/12/23 10:12:57;;;;;;;;;;;;;;;9.26;100.00;100482.72;4984985;28;19964;-67
2022/12/23 10:15:28;;;;;;;;;;;;;;;9.27;100.00;100475.81;4988848;28;20567;-67
2022/12/23 10:17:55;;;;;;;;;;;;;;;9.26;100.00;100459.44;4994544;28;19932;-67
2022/12/23 10:20:43;;;;;;;;;;;;;;;9.26;100.00;100459.44;4993749;28;19918;-67
2022/12/23 10:23:23;;;;;;;;;;;;;;;9.25;100.00;100446.53;4996471;28;19921;-67
2022/12/23 10:25:50;;;;;;;;;;;;;;;9.21;100.00;100443.16;4966119;28;20377;-67
2022/12/23 10:28:16;;;;;;;;;;;;;;;9.21;100.00;100439.75;4991858;28;20277;-67
2022/12/23 10:30:44;;;;;;;;;;;;;;;9.21;100.00;100432.00;4988097;28;20383;-68
2022/12/23 10:33:26;;;;;;;;;;;;;;;9.20;100.00;100425.97;4974883;28;20292;-67
2022/12/23 10:36:11;;;;;;;;;;;;;;;9.21;100.00;100417.28;4983831;28;19922;-67
2022/12/23 10:38:55;;;;;;;;;;;;;;;9.22;100.00;100413.81;4990650;28;19991;-67
2022/12/23 10:41:23;;;;;;;;;;;;;;;9.20;100.00;100423.38;5001391;28;19917;-67
2022/12/23 10:44:07;;;;;;;;;;;;;;;9.20;100.00;100414.78;4999284;28;19913;-67
2022/12/23 10:46:35;;;;;;;;;;;;;;;9.21;100.00;100422.47;4994366;28;19918;-67
2022/12/23 10:49:12;;;;;;;;;;;;;;;9.20;100.00;100413.03;4997162;28;20475;-70
2022/12/23 10:51:44;;;;;;;;;;;;;;;9.23;100.00;100394.84;4988541;28;19917;-71
2022/12/23 10:54:29;;;;;;;;;;;;;;;9.25;100.00;100397.41;4996352;28;19917;-71
2022/12/23 10:56:55;;;;;;;;;;;;;;;9.28;100.00;100387.00;4981270;28;20014;-71
2022/12/23 10:59:25;;;;;;;;;;;;;;;9.32;100.00;100386.00;4978686;28;19921;-71
2022/12/23 11:01:55;;;;;;;;;;;;;;;9.31;100.00;100379.97;4994880;28;19963;-71
2022/12/23 11:04:27;;;;;;;;;;;;;;;9.32;100.00;100378.25;4992994;28;19956;-71
2022/12/23 11:06:54;;;;;;;;;;;;;;;9.31;100.00;100363.63;4995146;28;19917;-71
2022/12/23 11:09:20;;;;;;;;;;;;;;;9.30;100.00;100352.41;4990180;28;20008;-71
2022/12/23 11:11:52;;;;;;;;;;;;;;;9.31;100.00;100355.84;4989523;28;19983;-71
2022/12/23 11:14:30;;;;;;;;;;;;;;;9.30;100.00;100351.56;4993566;28;19922;-71
2022/12/23 11:16:56;;;;;;;;;;;;;;;9.28;100.00;100340.44;4991813;28;19952;-71
2022/12/23 11:19:21;;;;;;;;;;;;;;;9.29;100.00;100337.78;4996621;28;19922;-67
2022/12/23 11:21:56;;;;;;;;;;;;;;;9.29;100.00;100340.38;4995786;28;19949;-67
2022/12/23 11:24:22;;;;;;;;;;;;;;;9.29;100.00;100342.97;4996382;28;19913;-67
2022/12/23 11:26:49;;;;;;;;;;;;;;;9.26;100.00;100340.47;4996810;28;19917;-68
2022/12/23 11:29:22;;;;;;;;;;;;;;;9.27;100.00;100338.72;4996434;28;19921;-68
2022/12/23 11:31:47;;;;;;;;;;;;;;;9.26;100.00;100335.28;4996393;28;20304;-67
2022/12/23 11:34:15;;;;;;;;;;;;;;;9.23;100.00;100325.03;4997044;28;19910;-67
2022/12/23 11:36:41;;;;;;;;;;;;;;;9.20;100.00;100316.50;4997100;28;20388;-67
2022/12/23 11:39:12;;;;;;;;;;;;;;;9.16;100.00;100305.38;4996569;28;20400;-68
2022/12/23 11:41:40;;;;;;;;;;;;;;;9.13;100.00;100313.25;4989746;28;19949;-67
2022/12/23 11:44:17;;;;;;;;;;;;;;;9.10;100.00;100311.56;4992770;28;19902;-68
2022/12/23 11:46:43;;;;;;;;;;;;;;;9.09;100.00;100304.69;4996599;28;19924;-68
2022/12/23 11:49:22;;;;;;;;;;;;;;;9.10;100.00;100303.81;4984287;28;19917;-68
2022/12/23 11:52:08;;;;;;;;;;;;;;;9.09;100.00;100293.50;4995395;28;19912;-68
2022/12/23 11:54:33;;;;;;;;;;;;;;;9.07;100.00;100282.38;4982176;28;20367;-68
2022/12/23 11:57:00;;;;;;;;;;;;;;;9.05;100.00;100276.38;4996850;28;19909;-68
2022/12/23 11:59:28;;;;;;;;;;;;;;;9.04;100.00;100272.09;4983364;28;19996;-68
2022/12/23 12:01:56;;;;;;;;;;;;;;;9.03;100.00;100271.25;4995371;28;20284;-68
2022/12/23 12:04:23;;;;;;;;;;;;;;;9.01;100.00;100265.25;4996183;28;20415;-68
2022/12/23 12:06:49;;;;;;;;;;;;;;;8.98;100.00;100265.38;4996248;28;20364;-68
2022/12/23 12:09:15;;;;;;;;;;;;;;;8.97;100.00;100255.06;4992860;28;19918;-68
2022/12/23 12:11:59;;;;;;;;;;;;;;;8.95;100.00;100243.91;4993132;28;19920;-68
2022/12/23 12:14:31;;;;;;;;;;;;;;;8.92;100.00;100225.91;4995444;28;19906;-68
2022/12/23 12:17:16;;;;;;;;;;;;;;;8.90;100.00;100207.00;4978011;28;19921;-68
2022/12/23 12:19:45;;;;;;;;;;;;;;;8.86;100.00;100193.34;4995305;28;19933;-68
2022/12/23 12:22:19;;;;;;;;;;;;;;;8.85;100.00;100190.78;4992492;28;19917;-68
2022/12/23 12:24:49;;;;;;;;;;;;;;;8.82;100.00;100189.13;4989081;28;19913;-68
2022/12/23 12:27:16;;;;;;;;;;;;;;;8.82;100.00;100183.94;4993217;28;20459;-68
2022/12/23 12:29:47;;;;;;;;;;;;;;;8.83;100.00;100166.72;4988402;28;20305;-68
2022/12/23 12:32:18;;;;;;;;;;;;;;;8.82;100.00;100154.69;4993980;28;20000;-68
2022/12/23 12:34:57;;;;;;;;;;;;;;;8.84;100.00;100169.25;4994303;28;19997;-68
2022/12/23 12:37:32;;;;;;;;;;;;;;;8.88;100.00;100183.78;4989950;28;19967;-68
2022/12/23 12:39:59;;;;;;;;;;;;;;;8.92;100.00;100169.91;4991804;28;19952;-68
2022/12/23 12:42:32;;;;;;;;;;;;;;;8.91;100.00;100163.03;4993727;28;20510;-68
2022/12/23 12:45:04;;;;;;;;;;;;;;;8.93;100.00;100155.25;4995145;28;19920;-68
2022/12/23 12:47:37;;;;;;;;;;;;;;;8.99;100.00;100153.34;4995421;28;19916;-68
2022/12/23 12:50:07;;;;;;;;;;;;;;;9.09;100.00;100146.16;4994301;28;19925;-68
2022/12/23 12:52:36;;;;;;;;;;;;;;;9.17;100.00;100131.25;4993639;28;19937;-68
2022/12/23 12:55:05;;;;;;;;;;;;;;;9.27;100.00;100121.50;4977141;28;19922;-68
2022/12/23 12:57:31;;;;;;;;;;;;;;;9.27;100.00;100106.84;4995040;28;19914;-69
2022/12/23 12:59:57;;;;;;;;;;;;;;;9.27;100.00;100106.00;4991796;28;19918;-68
2022/12/23 13:02:51;;;;;;;;;;;;;;;9.28;100.00;100108.50;4993875;28;20455;-68
2022/12/23 13:05:16;;;;;;;;;;;;;;;9.32;100.00;100081.69;4993412;28;19959;-68
2022/12/23 13:07:41;;;;;;;;;;;;;;;9.29;100.00;100061.06;4977384;28;19922;-68